Flight Track Log - Related Links

Times and Time Zones

All times are in EDT time to prevent confusion due to time zone crossing. See the SWA543 flight status page for this flight to view local times or setup timezone preferences in your user account.

Time Position Orientation Groundspeed Altitude Reporting Facility
EDT Latitude Longitude Course Direction KTS MPH feet Rate Location/Type
Sat 07:53:21 PM 36.0756 -115.1950 266° West 189 217 3,800  Level Los Angeles Center
Sat 07:54:06 PM 36.0728 -115.2406 266° West 202 232 5,000 1,475 Climbing Los Angeles Center
Sat 07:54:22 PM 36.0536 -115.2633 224° Southwest 245 282 5,300 1,548 Climbing Los Angeles Center
Sat 07:55:08 PM 36.0058 -115.2839 199° South 268 308 6,600 1,672 Climbing Los Angeles Center
Sat 07:55:23 PM 35.9811 -115.2978 204° Southwest 288 331 7,000 885 Climbing Los Angeles Center
Sat 07:56:09 PM 35.9322 -115.2756 160° South 284 327 7,500 1,475 Climbing Los Angeles Center
Sat 07:56:24 PM 35.9222 -115.2453 112° Southeast 295 339 8,500 2,419 Climbing Los Angeles Center
Sat 07:57:11 PM 35.9150 -115.1775 97° East 293 337 10,000 2,727 Climbing Los Angeles Center
Sat 07:58:25 PM 35.8997 -115.0139 97° East 349 402 14,000 3,171 Climbing Los Angeles Center
Sat 07:59:14 PM 35.8897 -114.9203 97° East 346 398 16,500 2,703 Climbing Los Angeles Center
Sat 08:00:16 PM 35.8769 -114.7967 97° East 362 417 19,000 2,195 Climbing Los Angeles Center
Sat 08:01:17 PM 35.8664 -114.6944 97° East 373 429 21,000 2,244 Climbing Los Angeles Center
Sat 08:02:19 PM 35.8278 -114.5456 108° East 390 449 23,600 1,984 Climbing Los Angeles Center
Sat 08:03:21 PM 35.7789 -114.4511 123° Southeast 403 464 25,100 1,742 Climbing Los Angeles Center
Sat 08:04:23 PM 35.7019 -114.3061 123° Southeast 420 483 27,200 1,902 Climbing Los Angeles Center
Sat 08:05:24 PM 35.6333 -114.1786 123° Southeast 430 495 29,000 878 Climbing Los Angeles Center
Sat 08:06:26 PM 35.5681 -114.0564 123° Southeast 430 495 29,000  Level Los Angeles Center
Sat 08:07:28 PM 35.5031 -113.9347 123° Southeast 430 495 29,000  Level Los Angeles Center
Sat 08:08:29 PM 35.4231 -113.7875 124° Southeast 435 501 29,000  Level Los Angeles Center
Sat 08:09:31 PM 35.3564 -113.6642 124° Southeast 437 503 29,000  Level Los Angeles Center
Sat 08:10:32 PM 35.3022 -113.5653 124° Southeast 439 505 29,000  Level Los Angeles Center
Sat 08:11:34 PM 35.2217 -113.4164 123° Southeast 442 509 29,000  Level Los Angeles Center
Sat 08:12:36 PM 35.1508 -113.2983 126° Southeast 439 505 29,000  Level Los Angeles Center
Sat 08:13:32 PM 35.0742 -113.1833 129° Southeast 443 510 29,000  Level Albuquerque Center
Sat 08:14:34 PM 34.9994 -113.0669 128° Southeast 443 510 29,000  Level Albuquerque Center
Sat 08:15:35 PM 34.8961 -112.9400 135° Southeast 444 511 29,000  Level Albuquerque Center
Sat 08:16:37 PM 34.8014 -112.8450 141° Southeast 443 510 29,000  Level Albuquerque Center
Sat 08:17:38 PM 34.7078 -112.7519 141° Southeast 441 507 29,000 -98 Level Albuquerque Center
Sat 08:18:39 PM 34.6150 -112.6589 140° Southeast 438 504 28,800 -1,073 Descending Albuquerque Center
Sat 08:19:41 PM 34.5250 -112.5689 141° Southeast 426 490 26,800 -2,098 Descending Albuquerque Center
Sat 08:20:42 PM 34.4350 -112.4803 141° Southeast 406 467 24,500 -2,195 Descending Albuquerque Center
Sat 08:21:44 PM 34.3508 -112.3969 141° Southeast 395 455 22,300 -2,098 Descending Albuquerque Center
Sat 08:22:45 PM 34.2692 -112.3161 141° Southeast 383 441 20,200 -2,115 Descending Albuquerque Center
Sat 08:23:46 PM 34.1903 -112.2389 141° Southeast 371 427 18,000 -2,049 Descending Albuquerque Center
Sat 08:24:48 PM 34.0992 -112.1497 141° Southeast 355 409 16,000 -1,561 Descending Albuquerque Center
Sat 08:25:49 PM 34.0147 -112.1175 162° South 322 371 14,800 -1,415 Descending Albuquerque Center
Sat 08:26:51 PM 33.9297 -112.0961 168° South 317 365 13,100 -1,659 Descending Albuquerque Center
Sat 08:27:52 PM 33.8456 -112.0744 168° South 313 360 11,400 -1,525 Descending Albuquerque Center
Sat 08:28:53 PM 33.7631 -112.0544 169° South 307 353 10,000 -738 Descending Albuquerque Center
Sat 08:29:54 PM 33.6856 -112.0403 171° South 286 329 9,900 -439 Descending Albuquerque Center
Sat 08:30:56 PM 33.6111 -112.0275 172° South 274 315 9,100 -878 Descending Albuquerque Center
Sat 08:31:57 PM 33.5350 -111.9872 156° South 258 297 8,100 -1,082 Descending Albuquerque Center
Sat 08:32:58 PM 33.5278 -111.9058 96° East 253 291 6,900 -829 Descending Albuquerque Center
Sat 08:34:00 PM 33.5250 -111.8369 93° East 206 237 6,400 -878 Descending Albuquerque Center
Sat 08:35:01 PM 33.5108 -111.7736 105° East 198 228 5,100 -1,131 Descending Albuquerque Center
Sat 08:36:02 PM 33.4611 -111.7847 191° South 200 230 4,100 -689 Descending Albuquerque Center
Sat 08:37:03 PM 33.4411 -111.8367 245° Southwest 175 201 3,700 -683 Descending Albuquerque Center
Sat 08:38:05 PM 33.4406 -111.8944 269° West 172 198 2,700 -829 Descending Albuquerque Center
Sat 08:39:06 PM 33.4408 -111.9400 270° West 143 165 2,000 -738 Descending Albuquerque Center
Sat 08:40:07 PM 33.4400 -111.9892 269° West 140 161 1,200 -787 Descending Albuquerque Center

Login

Don't have an account? Register now (free) for customized features, flight alerts, and more!